Terminal Aerodrome Forecast
Issued by NWS

Home | Current Version | Previous Version | Text Only | Print | Product List | Glossary On
Versions: 1 2 3 4 5 6 7 8 9 10 11 12 13 14 15 16 17 18 19 20 21
000
FTUS45 KABQ 180500
TAFROW
TAF
KROW 180528Z 1806/1906 24005KT P6SM BKN100
     FM180800 30010KT P6SM VCSH SCT025 OVC040
     FM181700 18010KT P6SM VCTS SCT025 BKN040CB
     FM182000 15005KT P6SM VCSH SCT025 OVC040
     FM190200 06005KT P6SM VCTS SCT015 BKN040CB
     FM190500 09005KT P6SM VCFG SCT015 OVC025=

USA.gov is the U.S. government's official web portal to all federal, state and local government web resources and services.